Terminal Aerodrome Forecast
Issued by NWS

Home | Current Version | Previous Version | Graphics & Text | Print | Product List | Glossary On
Versions: 1 2 3 4 5 6 7 8 9 10 11 12 13 14 15 16 17 18 19
805
FTUS43 KGRB 051135
TAFCWA
TAF
KCWA 051135Z 0512/0612 31005KT P6SM SCT025
      TEMPO 0512/0513 -SN BKN020
     FM051500 26004KT P6SM SCT100 BKN200
     FM051800 25006KT P6SM SCT050 BKN090
     FM052300 20005KT P6SM SCT025 OVC050
     FM060400 21005KT 6SM -SN SCT025 BKN040
     FM060800 24004KT P6SM BKN025=

USA.gov is the U.S. government's official web portal to all federal, state and local government web resources and services.